Hegina — 3ETX2 — position and weather

sailwx.info

Track history (hours):
 
Tides and Currents Weather Stations Pressure Air Temp Water Temp Dewpoint Dewpoint Depression Visibility Wind Speed Wind Dir Waves Ship Positions

Hegina

Last reported at 2014-Nov-28 14:14 UTC. Time now 2014-Nov-28 20:37 UTC.
Position N 49°37' W 000°22'.

Length 138 m; draft 6.5 m.

Type: Cargo ship. MMSI: 372427000.

Date/timePositionNaut miles runAvg speedWind from/ knotsBaromVisibWave heightAir tempDewpointWater temp
2014-Nov-28 14:14N 49°37' W 000°22'912.9
2014-Nov-28 13:33N 49°31' W 000°11'4 3.3
2014-Nov-28 12:29N 49°29' W 000°07'0 0.1
2014-Nov-28 11:32N 49°29' W 000°07'0 0.1
2014-Nov-28 10:29N 49°29' W 000°07'0 0.0
2014-Nov-28 09:32N 49°29' W 000°07'0 0.0
2014-Nov-28 08:32N 49°29' W 000°07'0 0.0
2014-Nov-28 07:29N 49°29' W 000°07'0 0.0
2014-Nov-28 06:33N 49°29' W 000°07'0 0.0
2014-Nov-28 05:33N 49°29' W 000°07'0 0.0
2014-Nov-28 04:33N 49°29' W 000°07'0 0.0
2014-Nov-28 03:33N 49°29' W 000°07'0 0.0
2014-Nov-28 02:33N 49°29' W 000°07'0 0.0
2014-Nov-28 01:33N 49°29' W 000°07'0 0.0
2014-Nov-28 00:33N 49°29' W 000°07'9 9.3
2014-Nov-27 23:33N 49°26' E 000°07'1010.0
2014-Nov-27 22:33N 49°26' E 000°22'8 7.6
2014-Nov-27 21:32N 49°27' E 000°34'  
2014-Nov-22 20:31N 49°28' E 000°40'9 9.7
2014-Nov-22 19:33N 49°27' E 000°25'1514.7
2014-Nov-22 18:33N 49°27' E 000°03'1111.5
2014-Nov-22 17:34N 49°31' W 000°14'1313.0
2014-Nov-22 16:33N 49°36' W 000°32'  
2014-Nov-19 22:31N 38°31' W 009°53'1313.3
2014-Nov-19 21:33N 38°18' W 009°56'1313.1
2014-Nov-19 20:33N 38°05' W 010°01'  
Track history (hours):
 
Tides and Currents Weather Stations Pressure Air Temp Water Temp Dewpoint Dewpoint Depression Visibility Wind Speed Wind Dir Waves Ship Positions

Hegina

Last reported at 2014-Nov-28 14:14 UTC. Time now 2014-Nov-28 20:37 UTC.
Position N 49°37' W 000°22'.

Length 138 m; draft 6.5 m.

Type: Cargo ship. MMSI: 372427000.

Date/timePositionNaut miles runAvg speedWind from/ knotsBaromVisibWave heightAir tempDewpointWater temp
2014-Nov-28 14:14N 49°37' W 000°22'912.9
2014-Nov-28 13:33N 49°31' W 000°11'4 3.3
2014-Nov-28 12:29N 49°29' W 000°07'0 0.1
2014-Nov-28 11:32N 49°29' W 000°07'0 0.1
2014-Nov-28 10:29N 49°29' W 000°07'0 0.0
2014-Nov-28 09:32N 49°29' W 000°07'0 0.0
2014-Nov-28 08:32N 49°29' W 000°07'0 0.0
2014-Nov-28 07:29N 49°29' W 000°07'0 0.0
2014-Nov-28 06:33N 49°29' W 000°07'0 0.0
2014-Nov-28 05:33N 49°29' W 000°07'0 0.0
2014-Nov-28 04:33N 49°29' W 000°07'0 0.0
2014-Nov-28 03:33N 49°29' W 000°07'0 0.0
2014-Nov-28 02:33N 49°29' W 000°07'0 0.0
2014-Nov-28 01:33N 49°29' W 000°07'0 0.0
2014-Nov-28 00:33N 49°29' W 000°07'9 9.3
2014-Nov-27 23:33N 49°26' E 000°07'1010.0
2014-Nov-27 22:33N 49°26' E 000°22'8 7.6
2014-Nov-27 21:32N 49°27' E 000°34'  
2014-Nov-22 20:31N 49°28' E 000°40'9 9.7
2014-Nov-22 19:33N 49°27' E 000°25'1514.7
2014-Nov-22 18:33N 49°27' E 000°03'1111.5
2014-Nov-22 17:34N 49°31' W 000°14'1313.0
2014-Nov-22 16:33N 49°36' W 000°32'  
2014-Nov-19 22:31N 38°31' W 009°53'1313.3
2014-Nov-19 21:33N 38°18' W 009°56'1313.1
2014-Nov-19 20:33N 38°05' W 010°01'  

Dump ship's entire track history